Time;durP1;ratioP1;P1;durP2;ratioP2;P2;SDS_P1;SDS_P2;PMS_P1;PMS_P2;Temp;Humidity;BMP_temperature;BMP_pressure;BME280_temperature;BME280_humidity;BME280_pressure;Samples;Min_cycle;Max_cycle;Signal;HPM_P1;HPM_P2
2022/02/05 00:04:23;;;;;;;;;;;6.40;99.90;;;;;;5060006;28;19937;-72
2022/02/05 00:06:53;;;;;;;;;;;6.40;99.90;;;;;;5072292;28;19908;-72
2022/02/05 00:14:51;;;;;;;;;;;6.40;99.90;;;;;;5072330;28;20284;-72
2022/02/05 00:41:32;;;;;;;;;;;6.30;99.90;;;;;;5074446;28;19913;-72
2022/02/05 00:44:00;;;;;;;;;;;6.30;99.90;;;;;;5074613;28;19909;-72
2022/02/05 00:46:31;;;;;;;;;;;6.20;99.90;;;;;;5075734;28;20456;-73
2022/02/05 00:48:56;;;;;;;;;;;6.20;99.90;;;;;;5075833;28;19909;-72
2022/02/05 00:51:32;;;;;;;;;;;6.20;99.90;;;;;;5075630;28;20403;-72
2022/02/05 00:54:07;;;;;;;;;;;6.30;99.90;;;;;;5075701;28;19908;-72
2022/02/05 00:59:07;;;;;;;;;;;6.30;99.90;;;;;;5075558;28;19915;-72
2022/02/05 01:01:33;;;;;;;;;;;6.20;99.90;;;;;;5075372;28;19912;-72
2022/02/05 01:03:59;;;;;;;;;;;6.30;99.90;;;;;;5075449;28;19908;-72
2022/02/05 01:06:24;;;;;;;;;;;6.30;99.90;;;;;;5075542;28;20038;-72
2022/02/05 01:08:50;;;;;;;;;;;6.30;99.90;;;;;;5074157;28;19935;-71
2022/02/05 01:11:16;;;;;;;;;;;6.30;99.90;;;;;;5075380;28;20323;-72
2022/02/05 01:13:42;;;;;;;;;;;6.40;99.90;;;;;;5075234;28;19912;-72
2022/02/05 01:16:19;;;;;;;;;;;6.30;99.90;;;;;;5073863;28;19955;-73
2022/02/05 01:18:46;;;;;;;;;;;6.40;99.90;;;;;;5075292;28;19916;-72
2022/02/05 01:21:32;;;;;;;;;;;6.40;99.90;;;;;;5075069;28;19960;-72
2022/02/05 01:24:03;;;;;;;;;;;6.40;99.90;;;;;;5057178;28;19908;-72
2022/02/05 01:26:37;;;;;;;;;;;6.50;99.90;;;;;;5075377;28;19908;-73
2022/02/05 01:29:09;;;;;;;;;;;6.50;99.90;;;;;;5073767;28;19952;-72
2022/02/05 01:31:44;;;;;;;;;;;6.50;99.90;;;;;;5074996;28;19915;-72
2022/02/05 01:34:24;;;;;;;;;;;6.50;99.90;;;;;;5073252;28;19909;-73
2022/02/05 01:49:01;;;;;;;;;;;6.40;99.90;;;;;;5074685;28;19908;-72
2022/02/05 01:53:28;;;;;;;;;;;6.30;99.90;;;;;;5074547;28;20314;-72
2022/02/05 01:56:25;;;;;;;;;;;5.60;99.90;;;;;;5074477;28;20004;-72
2022/02/05 01:59:10;;;;;;;;;;;4.90;99.90;;;;;;5074494;28;20039;-72
2022/02/05 02:12:10;;;;;;;;;;;3.90;99.90;;;;;;5074144;28;19912;-72
2022/02/05 02:19:46;;;;;;;;;;;3.90;99.90;;;;;;5074003;28;19909;-72
2022/02/05 02:22:19;;;;;;;;;;;3.80;99.90;;;;;;5074060;28;20134;-72
2022/02/05 02:29:58;;;;;;;;;;;3.80;99.90;;;;;;5073831;28;19962;-72
2022/02/05 02:32:24;;;;;;;;;;;3.80;99.90;;;;;;5072514;28;19947;-72
2022/02/05 02:34:54;;;;;;;;;;;3.80;99.90;;;;;;5073624;28;20004;-72
2022/02/05 02:37:48;;;;;;;;;;;3.90;99.90;;;;;;5073587;28;20288;-72
2022/02/05 02:40:22;;;;;;;;;;;3.80;99.90;;;;;;5073490;28;19916;-72
2022/02/05 02:42:51;;;;;;;;;;;3.80;99.90;;;;;;5073613;28;19999;-72
2022/02/05 02:45:16;;;;;;;;;;;3.90;99.90;;;;;;5071479;28;19915;-72
2022/02/05 02:47:44;;;;;;;;;;;3.80;99.90;;;;;;5073370;28;20380;-72
2022/02/05 02:56:23;;;;;;;;;;;3.90;99.90;;;;;;5073376;28;19962;-72
2022/02/05 02:58:29;;;;;;;;;;;3.80;99.90;;;;;;5072048;28;20380;-72
2022/02/05 03:00:58;;;;;;;;;;;3.70;99.90;;;;;;5071816;28;20004;-72
2022/02/05 03:03:25;;;;;;;;;;;3.60;99.90;;;;;;5071757;28;19908;-72
2022/02/05 03:05:51;;;;;;;;;;;3.70;99.90;;;;;;5071787;28;19909;-72
2022/02/05 03:08:16;;;;;;;;;;;3.80;99.90;;;;;;5073136;28;19908;-72
2022/02/05 03:10:42;;;;;;;;;;;3.80;99.90;;;;;;5073086;28;19912;-72
2022/02/05 03:13:08;;;;;;;;;;;3.90;99.90;;;;;;5071705;28;19959;-72
2022/02/05 03:15:38;;;;;;;;;;;3.80;99.90;;;;;;5072907;28;19908;-72
2022/02/05 03:18:09;;;;;;;;;;;3.80;99.90;;;;;;5072998;28;19943;-72
2022/02/05 03:20:35;;;;;;;;;;;3.70;99.90;;;;;;5072855;28;19912;-72
2022/02/05 03:23:01;;;;;;;;;;;3.60;99.90;;;;;;5072692;28;19962;-72
2022/02/05 03:25:28;;;;;;;;;;;3.70;99.90;;;;;;5072874;28;19908;-72
2022/02/05 03:27:54;;;;;;;;;;;3.60;99.90;;;;;;5072787;28;20276;-72
2022/02/05 03:30:19;;;;;;;;;;;3.70;99.90;;;;;;5072819;28;19915;-72
2022/02/05 03:32:45;;;;;;;;;;;3.70;99.90;;;;;;5071346;28;20418;-72
2022/02/05 03:35:11;;;;;;;;;;;3.80;99.90;;;;;;5072539;28;19919;-72
2022/02/05 03:37:36;;;;;;;;;;;3.90;99.90;;;;;;5071283;28;19957;-72
2022/02/05 03:40:02;;;;;;;;;;;3.80;99.90;;;;;;5072629;28;19912;-72
2022/02/05 03:42:28;;;;;;;;;;;4.00;99.90;;;;;;5071180;28;19908;-72
2022/02/05 03:44:53;;;;;;;;;;;4.20;99.90;;;;;;5072636;28;19913;-72
2022/02/05 03:47:19;;;;;;;;;;;3.90;99.90;;;;;;5072425;28;19908;-72
2022/02/05 03:49:45;;;;;;;;;;;4.10;99.90;;;;;;5071180;28;19912;-72
2022/02/05 03:52:10;;;;;;;;;;;4.00;99.90;;;;;;5072511;28;19920;-73
2022/02/05 03:54:36;;;;;;;;;;;3.80;99.90;;;;;;5071271;28;20287;-71
2022/02/05 03:57:02;;;;;;;;;;;3.80;99.90;;;;;;5071014;28;19944;-72
2022/02/05 03:59:27;;;;;;;;;;;3.80;99.90;;;;;;5072341;28;19916;-72
2022/02/05 04:01:56;;;;;;;;;;;3.80;99.90;;;;;;5071148;28;19909;-72
2022/02/05 04:04:22;;;;;;;;;;;3.80;99.90;;;;;;5072424;28;19916;-72
2022/02/05 04:06:48;;;;;;;;;;;3.90;99.90;;;;;;5071159;28;20412;-72
2022/02/05 04:09:22;;;;;;;;;;;3.90;99.90;;;;;;5072438;28;19989;-72
2022/02/05 04:11:57;;;;;;;;;;;3.80;99.90;;;;;;5072357;28;20057;-73
2022/02/05 04:17:07;;;;;;;;;;;4.00;99.90;;;;;;5070925;28;19924;-72
2022/02/05 04:19:32;;;;;;;;;;;3.80;99.90;;;;;;5072170;28;19936;-72
2022/02/05 04:21:58;;;;;;;;;;;3.90;99.90;;;;;;5072212;28;19908;-72
2022/02/05 04:24:24;;;;;;;;;;;4.00;99.90;;;;;;5070993;28;20489;-72
2022/02/05 04:26:51;;;;;;;;;;;3.80;99.90;;;;;;5072074;28;19908;-72
2022/02/05 04:29:16;;;;;;;;;;;3.80;99.90;;;;;;5072130;28;19916;-72
2022/02/05 04:31:42;;;;;;;;;;;3.80;99.90;;;;;;5070841;28;19909;-72
2022/02/05 04:34:08;;;;;;;;;;;3.70;99.90;;;;;;5070626;28;19931;-73
2022/02/05 04:36:35;;;;;;;;;;;3.70;99.90;;;;;;5071958;28;20006;-72
2022/02/05 04:39:05;;;;;;;;;;;4.00;99.90;;;;;;5071942;28;19955;-72
2022/02/05 04:42:12;;;;;;;;;;;4.10;99.90;;;;;;5070695;28;20384;-73
2022/02/05 04:52:06;;;;;;;;;;;3.90;99.90;;;;;;5071817;28;19908;-72
2022/02/05 05:02:28;;;;;;;;;;;3.80;99.90;;;;;;5071798;28;19908;-72
2022/02/05 05:07:52;;;;;;;;;;;3.60;99.90;;;;;;5072918;28;19987;-72
2022/02/05 05:10:37;;;;;;;;;;;3.60;99.90;;;;;;5074033;28;20351;-73
2022/02/05 05:13:12;;;;;;;;;;;3.70;99.90;;;;;;5057285;28;19916;-73
2022/02/05 05:20:51;;;;;;;;;;;3.60;99.90;;;;;;5075094;28;19916;-72
2022/02/05 05:23:17;;;;;;;;;;;3.60;99.90;;;;;;5075182;28;20065;-72
2022/02/05 05:25:42;;;;;;;;;;;3.50;99.90;;;;;;5073773;28;19909;-72
2022/02/05 05:28:08;;;;;;;;;;;3.70;99.90;;;;;;5074989;28;20358;-72
2022/02/05 05:30:34;;;;;;;;;;;3.60;99.90;;;;;;5075058;28;20013;-72
2022/02/05 05:32:59;;;;;;;;;;;3.80;99.90;;;;;;5074746;28;20023;-73
2022/02/05 05:35:25;;;;;;;;;;;3.80;99.90;;;;;;5074985;28;20304;-72
2022/02/05 05:37:52;;;;;;;;;;;4.00;99.90;;;;;;5074926;28;19912;-73
2022/02/05 05:40:18;;;;;;;;;;;4.00;99.90;;;;;;5073535;28;20295;-72
2022/02/05 05:42:49;;;;;;;;;;;4.00;99.90;;;;;;5073549;28;19908;-72
2022/02/05 05:45:49;;;;;;;;;;;3.90;99.90;;;;;;5086876;23;19954;-72
2022/02/05 05:48:16;;;;;;;;;;;3.90;99.90;;;;;;5034679;28;20006;-71
2022/02/05 05:53:09;;;;;;;;;;;4.00;99.90;;;;;;5027106;28;19937;-72
2022/02/05 05:55:35;;;;;;;;;;;3.80;99.90;;;;;;5037078;28;19909;-71
2022/02/05 05:58:01;;;;;;;;;;;3.70;99.90;;;;;;5054949;28;19915;-72
2022/02/05 06:00:27;;;;;;;;;;;3.60;99.90;;;;;;5055110;28;20076;-72
2022/02/05 06:02:52;;;;;;;;;;;3.50;99.90;;;;;;5054690;28;19936;-72
2022/02/05 06:05:18;;;;;;;;;;;3.40;99.90;;;;;;5037181;28;20007;-72
2022/02/05 06:07:43;;;;;;;;;;;3.10;99.90;;;;;;5036941;28;19909;-72
2022/02/05 06:10:09;;;;;;;;;;;3.10;99.90;;;;;;5054770;28;19958;-72
2022/02/05 06:12:35;;;;;;;;;;;3.00;99.90;;;;;;5036926;28;19909;-72
2022/02/05 06:15:04;;;;;;;;;;;2.90;99.90;;;;;;5053647;28;19918;-72
2022/02/05 06:17:30;;;;;;;;;;;3.00;99.90;;;;;;5054675;28;20297;-72
2022/02/05 06:19:55;;;;;;;;;;;3.00;99.90;;;;;;5036980;28;19913;-72
2022/02/05 06:22:21;;;;;;;;;;;3.20;99.90;;;;;;5054816;28;19915;-72
2022/02/05 06:24:47;;;;;;;;;;;3.40;99.90;;;;;;5054912;28;19947;-73
2022/02/05 06:27:12;;;;;;;;;;;3.30;99.90;;;;;;5054632;28;19909;-72
2022/02/05 06:29:38;;;;;;;;;;;3.20;99.90;;;;;;5054569;28;20284;-72
2022/02/05 06:32:04;;;;;;;;;;;3.10;99.90;;;;;;5036521;28;19952;-72
2022/02/05 06:34:29;;;;;;;;;;;3.10;99.90;;;;;;5053932;28;19952;-72
2022/02/05 06:36:55;;;;;;;;;;;2.90;99.90;;;;;;5036745;28;20360;-72
2022/02/05 06:39:21;;;;;;;;;;;2.90;99.90;;;;;;5037002;28;19916;-72
2022/02/05 06:41:47;;;;;;;;;;;3.00;99.90;;;;;;5054970;28;19917;-73
2022/02/05 06:44:13;;;;;;;;;;;3.00;99.90;;;;;;5037049;28;20011;-73
2022/02/05 06:46:39;;;;;;;;;;;2.90;99.90;;;;;;5054318;28;20284;-72
2022/02/05 06:49:05;;;;;;;;;;;2.80;99.90;;;;;;5035660;28;19915;-72
2022/02/05 06:51:31;;;;;;;;;;;2.90;99.90;;;;;;5053522;28;20327;-72
2022/02/05 06:53:56;;;;;;;;;;;2.90;99.90;;;;;;5053334;28;19912;-72
2022/02/05 06:56:22;;;;;;;;;;;3.00;99.90;;;;;;5053350;28;19909;-72
2022/02/05 06:58:47;;;;;;;;;;;3.00;99.90;;;;;;5035371;28;19913;-70
2022/02/05 07:01:13;;;;;;;;;;;2.90;99.90;;;;;;5053103;28;20371;-71
2022/02/05 07:03:39;;;;;;;;;;;3.10;99.90;;;;;;5035300;28;19995;-71
2022/02/05 07:06:05;;;;;;;;;;;3.20;99.90;;;;;;5053153;28;20295;-71
2022/02/05 07:08:31;;;;;;;;;;;3.10;99.90;;;;;;5053077;28;19999;-72
2022/02/05 07:10:57;;;;;;;;;;;3.10;99.90;;;;;;5035313;28;19966;-71
2022/02/05 07:13:22;;;;;;;;;;;3.00;99.90;;;;;;5052933;28;19909;-72
2022/02/05 07:21:57;;;;;;;;;;;2.80;99.90;;;;;;5053012;28;19921;-72
2022/02/05 07:29:16;;;;;;;;;;;2.90;99.90;;;;;;5052788;28;19916;-71
2022/02/05 07:31:43;;;;;;;;;;;2.80;99.90;;;;;;5052441;28;19916;-71
2022/02/05 07:34:09;;;;;;;;;;;2.90;99.90;;;;;;5034842;28;19935;-71
2022/02/05 07:36:35;;;;;;;;;;;2.90;99.90;;;;;;5052632;28;19909;-71
2022/02/05 07:39:00;;;;;;;;;;;3.00;99.90;;;;;;5018251;28;19916;-72
2022/02/05 07:41:26;;;;;;;;;;;3.10;99.90;;;;;;5052654;28;19913;-72
2022/02/05 07:43:52;;;;;;;;;;;3.20;99.90;;;;;;5052367;28;19996;-71
2022/02/05 07:46:17;;;;;;;;;;;3.00;99.90;;;;;;5052399;28;20372;-71
2022/02/05 07:48:43;;;;;;;;;;;3.00;99.90;;;;;;5034611;28;20378;-71
2022/02/05 07:51:09;;;;;;;;;;;3.00;99.90;;;;;;5052473;28;20390;-71
2022/02/05 07:53:35;;;;;;;;;;;2.90;99.90;;;;;;5052517;28;20287;-71
2022/02/05 07:56:02;;;;;;;;;;;2.80;99.90;;;;;;5018101;28;19908;-71
2022/02/05 07:58:27;;;;;;;;;;;2.90;99.90;;;;;;5034506;28;19913;-71
2022/02/05 08:00:53;;;;;;;;;;;3.10;99.90;;;;;;5034461;28;20269;-71
2022/02/05 08:03:19;;;;;;;;;;;3.00;99.90;;;;;;5052221;28;19944;-71
2022/02/05 08:05:44;;;;;;;;;;;3.00;99.90;;;;;;5052342;28;19940;-71
2022/02/05 08:08:14;;;;;;;;;;;2.90;99.90;;;;;;5034377;28;19959;-70
2022/02/05 08:10:49;;;;;;;;;;;3.00;99.90;;;;;;5034325;28;20378;-71
2022/02/05 08:13:15;;;;;;;;;;;3.10;99.90;;;;;;5034166;28;19909;-71
2022/02/05 08:15:42;;;;;;;;;;;3.20;99.90;;;;;;5034190;28;20453;-71
2022/02/05 08:18:07;;;;;;;;;;;3.30;99.90;;;;;;5034061;28;19913;-73
2022/02/05 08:20:33;;;;;;;;;;;3.50;99.90;;;;;;5052063;28;19916;-71
2022/02/05 08:22:58;;;;;;;;;;;3.60;99.90;;;;;;5052110;28;19979;-71
2022/02/05 08:25:24;;;;;;;;;;;3.80;99.90;;;;;;5052139;28;19909;-71
2022/02/05 08:27:50;;;;;;;;;;;3.90;99.90;;;;;;5052135;28;19908;-71
2022/02/05 08:30:16;;;;;;;;;;;3.90;99.90;;;;;;5052028;28;20019;-71
2022/02/05 08:32:44;;;;;;;;;;;3.80;99.90;;;;;;5017785;28;19986;-72
2022/02/05 08:35:09;;;;;;;;;;;3.90;99.90;;;;;;5034256;28;19916;-71
2022/02/05 08:37:37;;;;;;;;;;;3.90;99.90;;;;;;5050623;28;19909;-72
2022/02/05 08:40:03;;;;;;;;;;;3.90;99.90;;;;;;5052028;28;20371;-71
2022/02/05 08:42:29;;;;;;;;;;;3.90;99.90;;;;;;5034841;28;19916;-71
2022/02/05 08:44:54;;;;;;;;;;;4.00;99.90;;;;;;5055825;28;19909;-74
2022/02/05 08:47:20;;;;;;;;;;;4.10;99.90;;;;;;5055496;28;20379;-70
2022/02/05 08:49:46;;;;;;;;;;;4.20;99.90;;;;;;5055706;28;19941;-71
2022/02/05 08:52:12;;;;;;;;;;;4.10;99.90;;;;;;5055632;28;19909;-71
2022/02/05 08:54:38;;;;;;;;;;;4.10;99.90;;;;;;5055743;28;19923;-71
2022/02/05 08:57:05;;;;;;;;;;;4.00;99.90;;;;;;5055369;28;19909;-71
2022/02/05 08:59:43;;;;;;;;;;;4.00;99.90;;;;;;5055674;28;19915;-71
2022/02/05 09:02:18;;;;;;;;;;;4.10;99.90;;;;;;5055518;28;19912;-71
2022/02/05 09:04:53;;;;;;;;;;;3.90;99.90;;;;;;5038030;28;19936;-71
2022/02/05 09:07:19;;;;;;;;;;;4.10;99.90;;;;;;5037476;28;19948;-75
2022/02/05 09:14:56;;;;;;;;;;;4.20;99.90;;;;;;5055444;28;20355;-71
2022/02/05 09:17:22;;;;;;;;;;;4.40;99.90;;;;;;5055193;28;19909;-72
2022/02/05 09:19:49;;;;;;;;;;;4.70;99.90;;;;;;5055197;28;20364;-72
2022/02/05 09:22:15;;;;;;;;;;;4.60;99.90;;;;;;5037427;28;19919;-72
2022/02/05 09:24:40;;;;;;;;;;;4.80;99.90;;;;;;5055208;28;19909;-71
2022/02/05 09:27:09;;;;;;;;;;;4.50;99.90;;;;;;5055209;28;19909;-71
2022/02/05 09:29:43;;;;;;;;;;;4.70;99.90;;;;;;5055038;28;19909;-72
2022/02/05 09:32:08;;;;;;;;;;;5.20;99.90;;;;;;5020635;28;19954;-72
2022/02/05 09:34:34;;;;;;;;;;;5.40;99.90;;;;;;5037735;28;19954;-72
2022/02/05 09:36:59;;;;;;;;;;;5.50;99.90;;;;;;5037399;28;19971;-74
2022/02/05 09:39:25;;;;;;;;;;;5.40;99.90;;;;;;5054812;28;19928;-74
2022/02/05 09:41:51;;;;;;;;;;;5.50;99.90;;;;;;5054696;28;19992;-74
2022/02/05 09:44:17;;;;;;;;;;;5.70;99.90;;;;;;5054596;28;19919;-74
2022/02/05 09:46:43;;;;;;;;;;;5.90;99.90;;;;;;5036750;28;19991;-75
2022/02/05 09:49:08;;;;;;;;;;;6.20;99.90;;;;;;5053458;28;19952;-74
2022/02/05 09:51:37;;;;;;;;;;;6.10;98.30;;;;;;5054356;28;19913;-74
2022/02/05 09:54:05;;;;;;;;;;;6.20;97.50;;;;;;5036130;28;19931;-74
2022/02/05 09:56:32;;;;;;;;;;;6.40;96.70;;;;;;5036558;28;19913;-76
2022/02/05 09:58:58;;;;;;;;;;;6.40;95.80;;;;;;5036460;28;20007;-75
2022/02/05 10:01:27;;;;;;;;;;;6.60;93.70;;;;;;5036527;28;20408;-73
2022/02/05 10:03:53;;;;;;;;;;;6.60;93.10;;;;;;5054384;28;19909;-74
2022/02/05 10:06:26;;;;;;;;;;;6.30;93.20;;;;;;5054183;28;19951;-74
2022/02/05 10:08:54;;;;;;;;;;;6.50;93.30;;;;;;5036486;28;19982;-74
2022/02/05 10:11:20;;;;;;;;;;;7.40;92.50;;;;;;5054128;28;19915;-74
2022/02/05 10:13:46;;;;;;;;;;;8.20;90.60;;;;;;5054221;28;20182;-74
2022/02/05 10:16:11;;;;;;;;;;;8.40;87.20;;;;;;5036239;28;20385;-74
2022/02/05 10:18:39;;;;;;;;;;;9.10;83.70;;;;;;5053980;28;19935;-74
2022/02/05 10:21:17;;;;;;;;;;;9.40;80.70;;;;;;5035998;28;19952;-74
2022/02/05 10:23:51;;;;;;;;;;;9.60;77.60;;;;;;5036080;28;19913;-75
2022/02/05 10:26:26;;;;;;;;;;;10.10;75.90;;;;;;5035870;28;19913;-74
2022/02/05 10:29:09;;;;;;;;;;;9.40;72.70;;;;;;5053725;28;19909;-75
2022/02/05 10:31:54;;;;;;;;;;;9.20;75.30;;;;;;5054470;28;20388;-75
2022/02/05 10:34:20;;;;;;;;;;;8.90;75.20;;;;;;5036781;28;20341;-74
2022/02/05 10:36:47;;;;;;;;;;;10.10;73.70;;;;;;5053670;28;19944;-74
2022/02/05 10:39:29;;;;;;;;;;;10.50;69.70;;;;;;5053724;28;19944;-75
2022/02/05 10:44:39;;;;;;;;;;;11.20;64.60;;;;;;5036330;28;19909;-75
2022/02/05 10:47:05;;;;;;;;;;;10.60;64.90;;;;;;5035279;28;19927;-75
2022/02/05 10:49:44;;;;;;;;;;;10.40;64.30;;;;;;5036132;28;19916;-74
2022/02/05 10:52:23;;;;;;;;;;;11.10;66.10;;;;;;5053803;28;19996;-74
2022/02/05 10:54:54;;;;;;;;;;;11.70;61.80;;;;;;5053291;28;19967;-75
2022/02/05 10:57:29;;;;;;;;;;;11.10;61.90;;;;;;5053071;28;20433;-75
2022/02/05 11:05:11;;;;;;;;;;;11.20;64.60;;;;;;5052301;28;19943;-75
2022/02/05 11:05:44;;;;;;;;;;;12.10;62.30;;;;;;5034838;28;19978;-76
2022/02/05 11:08:10;;;;;;;;;;;11.80;58.90;;;;;;5053499;28;20343;-76
2022/02/05 11:13:23;;;;;;;;;;;11.40;62.00;;;;;;5053234;28;19967;-75
2022/02/05 11:18:56;;;;;;;;;;;11.70;60.00;;;;;;5053117;28;19955;-75
2022/02/05 11:21:17;;;;;;;;;;;11.40;60.60;;;;;;5034203;28;19939;-75
2022/02/05 11:23:47;;;;;;;;;;;11.40;61.20;;;;;;5035156;28;19919;-75
2022/02/05 11:26:13;;;;;;;;;;;11.20;59.80;;;;;;5053081;28;20415;-75
2022/02/05 11:28:42;;;;;;;;;;;11.50;61.00;;;;;;5035309;28;19997;-75
2022/02/05 11:31:29;;;;;;;;;;;11.60;59.00;;;;;;5035166;28;19913;-75
2022/02/05 11:34:13;;;;;;;;;;;11.60;59.50;;;;;;5051751;28;19912;-75
2022/02/05 11:36:39;;;;;;;;;;;12.30;59.00;;;;;;5018704;28;19920;-75
2022/02/05 11:39:05;;;;;;;;;;;12.40;55.80;;;;;;5035265;28;19916;-75
2022/02/05 11:41:35;;;;;;;;;;;12.80;55.90;;;;;;5053084;28;19912;-75
2022/02/05 11:44:16;;;;;;;;;;;12.00;57.40;;;;;;5018296;28;19956;-75
2022/02/05 11:46:43;;;;;;;;;;;12.60;57.20;;;;;;5074161;22;19936;-74
2022/02/05 11:49:10;;;;;;;;;;;11.40;57.40;;;;;;5091413;28;20351;-74
2022/02/05 11:51:46;;;;;;;;;;;11.30;58.40;;;;;;5092602;28;19953;-74
2022/02/05 11:54:16;;;;;;;;;;;10.30;61.70;;;;;;5091424;28;19908;-74
2022/02/05 11:57:05;;;;;;;;;;;9.50;61.40;;;;;;5091061;28;19909;-72
2022/02/05 11:59:50;;;;;;;;;;;9.00;63.50;;;;;;5091377;28;20356;-72
2022/02/05 12:02:19;;;;;;;;;;;10.40;62.70;;;;;;5092566;28;19912;-72
2022/02/05 12:04:45;;;;;;;;;;;10.50;59.30;;;;;;5091195;28;19908;-72
2022/02/05 12:07:12;;;;;;;;;;;10.30;59.20;;;;;;5091069;28;20364;-71
2022/02/05 12:09:40;;;;;;;;;;;10.30;58.40;;;;;;5074308;28;19908;-72
2022/02/05 12:12:24;;;;;;;;;;;10.00;62.40;;;;;;5092389;28;20337;-72
2022/02/05 12:15:11;;;;;;;;;;;10.00;60.70;;;;;;5091109;28;19908;-72
2022/02/05 12:20:31;;;;;;;;;;;11.60;56.40;;;;;;5094757;28;19912;-72
2022/02/05 12:23:26;;;;;;;;;;;12.30;53.50;;;;;;5094977;28;19951;-72
2022/02/05 12:25:59;;;;;;;;;;;12.50;50.20;;;;;;5093974;28;19939;-72
2022/02/05 12:28:36;;;;;;;;;;;13.20;50.40;;;;;;5095082;28;20372;-72
2022/02/05 12:31:25;;;;;;;;;;;12.60;48.90;;;;;;5096285;28;19912;-72
2022/02/05 12:33:56;;;;;;;;;;;12.60;50.20;;;;;;5084284;28;19908;-74
2022/02/05 12:36:29;;;;;;;;;;;12.00;50.80;;;;;;5094835;28;19908;-74
2022/02/05 12:38:55;;;;;;;;;;;11.20;52.30;;;;;;5096449;28;20337;-74
2022/02/05 12:41:22;;;;;;;;;;;11.40;53.00;;;;;;5096133;28;19912;-71
2022/02/05 12:43:59;;;;;;;;;;;11.00;53.00;;;;;;5096095;28;20409;-73
2022/02/05 12:46:35;;;;;;;;;;;11.00;53.90;;;;;;5096772;28;19912;-72
2022/02/05 12:49:06;;;;;;;;;;;11.20;52.70;;;;;;5095948;28;19993;-72
2022/02/05 12:51:32;;;;;;;;;;;11.70;53.30;;;;;;5094923;28;19969;-72
2022/02/05 12:54:05;;;;;;;;;;;12.70;51.30;;;;;;5095968;28;20363;-72
2022/02/05 12:56:34;;;;;;;;;;;12.90;49.30;;;;;;5094422;28;19908;-72
2022/02/05 12:59:02;;;;;;;;;;;13.50;49.30;;;;;;5095779;28;20371;-72
2022/02/05 13:01:29;;;;;;;;;;;13.60;47.30;;;;;;5095646;28;19961;-73
2022/02/05 13:04:14;;;;;;;;;;;13.20;47.90;;;;;;5077508;28;19908;-72
2022/02/05 13:06:40;;;;;;;;;;;13.30;48.60;;;;;;5095477;28;20292;-73
2022/02/05 13:09:21;;;;;;;;;;;13.30;49.30;;;;;;5095609;28;19955;-72
2022/02/05 13:11:56;;;;;;;;;;;13.70;49.00;;;;;;5094392;28;19908;-72
2022/02/05 13:14:22;;;;;;;;;;;13.70;48.20;;;;;;5094213;28;19915;-72
2022/02/05 13:16:48;;;;;;;;;;;14.40;46.70;;;;;;5095266;28;20011;-73
2022/02/05 13:19:22;;;;;;;;;;;14.80;45.00;;;;;;5095311;28;19914;-72
2022/02/05 13:24:59;;;;;;;;;;;15.10;43.70;;;;;;5095194;28;19961;-72
2022/02/05 13:27:45;;;;;;;;;;;14.30;44.50;;;;;;5094919;28;19912;-72
2022/02/05 13:35:55;;;;;;;;;;;13.30;46.00;;;;;;5094598;28;19938;-72
2022/02/05 13:38:21;;;;;;;;;;;12.30;47.20;;;;;;5095148;28;19908;-72
2022/02/05 13:40:50;;;;;;;;;;;11.40;48.60;;;;;;5094990;28;19912;-72
2022/02/05 13:43:19;;;;;;;;;;;11.10;50.80;;;;;;5094938;28;20023;-72
2022/02/05 13:45:45;;;;;;;;;;;11.50;52.20;;;;;;5094837;28;20399;-72
2022/02/05 13:48:22;;;;;;;;;;;11.00;51.50;;;;;;5094796;28;19916;-72
2022/02/05 13:50:48;;;;;;;;;;;11.00;51.70;;;;;;5094911;28;19909;-72
2022/02/05 13:53:14;;;;;;;;;;;10.40;51.20;;;;;;5094865;28;19915;-72
2022/02/05 13:55:41;;;;;;;;;;;10.20;52.60;;;;;;5094569;28;19908;-72
2022/02/05 13:58:14;;;;;;;;;;;10.20;51.20;;;;;;5094740;28;19939;-72
2022/02/05 14:00:50;;;;;;;;;;;9.70;52.70;;;;;;5076418;28;19995;-72
2022/02/05 14:03:15;;;;;;;;;;;9.70;53.50;;;;;;5093662;28;19912;-72
2022/02/05 14:05:56;;;;;;;;;;;9.70;54.20;;;;;;5094305;28;19984;-72
2022/02/05 14:08:26;;;;;;;;;;;10.00;53.20;;;;;;5093154;28;20276;-72
2022/02/05 14:10:56;;;;;;;;;;;9.40;53.10;;;;;;5076164;28;19908;-72
2022/02/05 14:13:22;;;;;;;;;;;9.40;52.60;;;;;;5094293;28;19915;-72
2022/02/05 14:15:56;;;;;;;;;;;9.70;53.40;;;;;;5094408;28;19908;-72
2022/02/05 14:18:22;;;;;;;;;;;9.60;53.00;;;;;;5094221;28;19915;-72
2022/02/05 14:20:57;;;;;;;;;;;9.40;52.90;;;;;;5092497;28;19923;-73
2022/02/05 14:23:30;;;;;;;;;;;9.50;53.30;;;;;;5094280;28;19908;-73
2022/02/05 14:26:06;;;;;;;;;;;9.40;53.10;;;;;;5093920;28;19954;-73
2022/02/05 14:28:49;;;;;;;;;;;9.40;52.50;;;;;;5094018;28;19913;-73
2022/02/05 14:32:08;;;;;;;;;;;9.20;52.50;;;;;;5092906;28;19959;-72
2022/02/05 14:41:47;;;;;;;;;;;8.60;54.20;;;;;;5092998;28;19999;-73
2022/02/05 14:44:13;;;;;;;;;;;8.50;55.10;;;;;;5093710;28;20407;-72
2022/02/05 14:46:40;;;;;;;;;;;8.50;55.10;;;;;;5093284;28;20012;-72
2022/02/05 14:49:06;;;;;;;;;;;8.40;55.30;;;;;;5093915;28;19915;-72
2022/02/05 14:51:32;;;;;;;;;;;8.20;54.40;;;;;;5093777;28;19994;-72
2022/02/05 14:53:59;;;;;;;;;;;8.10;54.60;;;;;;5093464;28;19946;-72
2022/02/05 14:56:25;;;;;;;;;;;7.90;55.10;;;;;;5093327;28;20299;-72
2022/02/05 14:58:50;;;;;;;;;;;7.90;55.50;;;;;;5092150;28;19915;-72
2022/02/05 15:01:21;;;;;;;;;;;8.10;56.50;;;;;;5093418;28;19939;-72
2022/02/05 15:03:50;;;;;;;;;;;7.90;56.70;;;;;;5093637;28;19908;-72
2022/02/05 15:06:21;;;;;;;;;;;7.60;56.20;;;;;;5093531;28;19916;-73
2022/02/05 15:08:47;;;;;;;;;;;7.70;57.60;;;;;;5093265;28;19909;-73
2022/02/05 15:11:16;;;;;;;;;;;7.80;56.80;;;;;;5093153;28;19908;-72
2022/02/05 15:13:42;;;;;;;;;;;7.90;56.60;;;;;;5093181;28;19920;-72
2022/02/05 15:16:14;;;;;;;;;;;7.90;55.80;;;;;;5092988;28;19912;-72
2022/02/05 15:18:41;;;;;;;;;;;8.00;56.40;;;;;;5091974;28;19908;-73
2022/02/05 15:21:07;;;;;;;;;;;7.90;56.90;;;;;;5092848;28;19954;-72
2022/02/05 15:23:33;;;;;;;;;;;7.90;57.50;;;;;;5091777;28;20331;-72
2022/02/05 15:26:02;;;;;;;;;;;7.90;57.10;;;;;;5092651;28;19992;-72
2022/02/05 15:28:28;;;;;;;;;;;7.60;57.00;;;;;;5092752;28;20038;-72
2022/02/05 15:30:53;;;;;;;;;;;7.40;58.10;;;;;;5092419;28;20007;-73
2022/02/05 15:33:23;;;;;;;;;;;7.30;59.30;;;;;;5092992;28;20270;-72
2022/02/05 15:35:50;;;;;;;;;;;7.30;58.60;;;;;;5092573;28;19908;-72
2022/02/05 15:38:22;;;;;;;;;;;7.30;58.20;;;;;;5074586;28;19961;-73
2022/02/05 15:43:52;;;;;;;;;;;7.20;58.40;;;;;;5091478;28;19945;-73
2022/02/05 15:46:18;;;;;;;;;;;7.30;59.20;;;;;;5092435;28;19912;-72
2022/02/05 15:48:44;;;;;;;;;;;7.60;59.00;;;;;;5092814;28;19919;-72
2022/02/05 15:51:10;;;;;;;;;;;7.30;57.70;;;;;;5092275;28;20007;-72
2022/02/05 15:53:43;;;;;;;;;;;7.30;58.30;;;;;;5092591;28;19908;-72
2022/02/05 15:56:20;;;;;;;;;;;7.20;58.30;;;;;;5092437;28;19912;-72
2022/02/05 15:58:48;;;;;;;;;;;7.30;58.60;;;;;;5092530;28;19908;-73
2022/02/05 16:01:15;;;;;;;;;;;7.30;58.20;;;;;;5074209;28;20018;-73
2022/02/05 16:03:42;;;;;;;;;;;7.20;59.20;;;;;;5091958;28;20393;-72
2022/02/05 16:06:08;;;;;;;;;;;7.10;59.60;;;;;;5092169;28;20256;-72
2022/02/05 16:08:34;;;;;;;;;;;6.90;59.70;;;;;;5092368;28;19912;-73
2022/02/05 16:10:59;;;;;;;;;;;7.00;60.20;;;;;;5090946;28;19916;-72
2022/02/05 16:13:25;;;;;;;;;;;7.20;60.20;;;;;;5091022;28;19969;-72
2022/02/05 16:15:51;;;;;;;;;;;7.10;60.90;;;;;;5092218;28;19908;-73
2022/02/05 16:18:16;;;;;;;;;;;6.90;60.90;;;;;;5092458;28;19978;-72
2022/02/05 16:20:42;;;;;;;;;;;7.00;61.40;;;;;;5091946;28;20006;-72
2022/02/05 16:23:07;;;;;;;;;;;7.10;61.70;;;;;;5092142;28;19957;-72
2022/02/05 16:25:33;;;;;;;;;;;7.10;60.80;;;;;;5092090;28;19908;-73
2022/02/05 16:27:59;;;;;;;;;;;7.10;61.10;;;;;;5092199;28;19961;-73
2022/02/05 16:30:26;;;;;;;;;;;7.10;61.70;;;;;;5092275;28;19909;-72
2022/02/05 16:32:55;;;;;;;;;;;6.80;61.70;;;;;;5092043;28;19958;-72
2022/02/05 16:35:27;;;;;;;;;;;6.70;62.20;;;;;;5092287;28;19991;-72
2022/02/05 16:37:53;;;;;;;;;;;6.50;62.60;;;;;;5090820;28;19969;-73
2022/02/05 16:40:20;;;;;;;;;;;6.60;63.00;;;;;;5092235;28;20057;-72
2022/02/05 16:42:48;;;;;;;;;;;6.50;63.40;;;;;;5090805;28;19908;-73
2022/02/05 16:45:15;;;;;;;;;;;6.20;63.90;;;;;;5091883;28;19912;-73
2022/02/05 16:47:41;;;;;;;;;;;6.00;63.80;;;;;;5091727;28;19916;-73
2022/02/05 16:50:07;;;;;;;;;;;6.00;64.50;;;;;;5092084;28;19916;-73
2022/02/05 16:52:32;;;;;;;;;;;6.00;65.00;;;;;;5090646;28;19994;-72
2022/02/05 16:54:58;;;;;;;;;;;6.10;65.60;;;;;;5092112;28;19951;-72
2022/02/05 16:57:24;;;;;;;;;;;6.00;65.60;;;;;;5090749;28;19909;-72
2022/02/05 16:59:49;;;;;;;;;;;5.80;65.70;;;;;;5091899;28;19908;-73
2022/02/05 17:02:15;;;;;;;;;;;5.80;65.60;;;;;;5091677;28;19912;-72
2022/02/05 17:04:41;;;;;;;;;;;5.70;65.70;;;;;;5094635;28;19912;-72
2022/02/05 17:07:06;;;;;;;;;;;5.60;66.20;;;;;;5094392;28;19954;-72
2022/02/05 17:09:39;;;;;;;;;;;5.60;65.90;;;;;;5095783;28;19908;-72
2022/02/05 17:12:10;;;;;;;;;;;5.80;67.10;;;;;;5095450;28;19915;-73
2022/02/05 17:14:38;;;;;;;;;;;5.80;65.40;;;;;;5095528;28;19994;-73